Greensburg, Louisiana
Current Conditions -  °F | °C
As of 3:35 AM on Monday 24 Nov 2014 (Local Time) from KHDC Reporting Station
Scattered Clouds Scattered Clouds  
Wind Chill: 68°   Ceiling: Unl
Heat Index: 68°   Visibility: 10mi
Dew Point: 64°   Wind: 6mph
Humidity: 88%   Direction: 250°WSW
Pressure: 29.77"   Gusts: NA
Location:  30.83°N, 90.67°W
Report Text: KHDC 240935Z AUTO 25005KT 10SM SCT008 20/18 A2977 RMK AO2
Loading
Personal Weather Stations






























Interactive Weather Map New forecast layout! Learn more

10-Day Weather Forecast

Advertisements
Track Severe Weather on mobile